createdAt,value
2022-09-28T00:00:02.353Z,0.30
2022-09-28T00:03:38.099Z,0.30
2022-09-28T00:06:41.827Z,0.55
2022-09-28T00:09:47.208Z,0.40
2022-09-28T00:12:52.035Z,0.65
2022-09-28T00:16:07.606Z,0.50
2022-09-28T00:19:12.696Z,0.30
2022-09-28T00:22:15.451Z,0.55
2022-09-28T00:25:22.088Z,0.35
2022-09-28T00:28:31.747Z,0.52
2022-09-28T00:32:02.635Z,0.70
2022-09-28T00:35:07.975Z,0.30
2022-09-28T00:38:11.222Z,0.75
2022-09-28T00:41:17.334Z,0.50
2022-09-28T00:45:04.935Z,0.45
2022-09-28T00:48:34.085Z,0.32
2022-09-28T00:51:41.952Z,0.25
2022-09-28T00:54:47.863Z,0.50
2022-09-28T00:57:58.073Z,0.40
2022-09-28T01:01:02.413Z,0.30
2022-09-28T01:04:07.230Z,0.30
2022-09-28T01:10:16.615Z,0.30
2022-09-28T01:13:21.634Z,0.40
2022-09-28T01:16:50.184Z,0.37
2022-09-28T01:20:22.980Z,0.45
2022-09-28T01:24:04.137Z,0.30
2022-09-28T01:27:26.971Z,0.40
2022-09-28T01:30:37.548Z,0.28
2022-09-28T01:33:42.896Z,0.30
2022-09-28T01:36:57.556Z,0.22
2022-09-28T01:40:07.512Z,0.40
2022-09-28T01:43:17.648Z,0.30
2022-09-28T01:46:24.528Z,0.40
2022-09-28T01:49:34.821Z,0.30
2022-09-28T01:52:54.240Z,0.47
2022-09-28T01:56:11.710Z,0.50
2022-09-28T01:59:23.348Z,0.45
2022-09-28T02:02:35.192Z,0.47
2022-09-28T02:05:58.698Z,0.62
2022-09-28T02:09:24.452Z,0.40
2022-09-28T02:12:35.244Z,0.30
2022-09-28T02:15:50.866Z,1.02
2022-09-28T02:18:57.676Z,0.70
2022-09-28T02:22:09.853Z,0.85
2022-09-28T02:25:46.569Z,0.50
2022-09-28T02:31:58.143Z,0.62
2022-09-28T02:35:06.825Z,0.98
2022-09-28T02:43:12.420Z,0.50
2022-09-28T02:46:29.861Z,0.40
2022-09-28T02:49:43.339Z,0.40
2022-09-28T02:53:12.009Z,0.47
2022-09-28T02:56:27.971Z,0.50
2022-09-28T03:00:05.163Z,0.40
2022-09-28T03:03:21.005Z,0.43
2022-09-28T03:06:34.930Z,0.50
2022-09-28T03:09:56.272Z,0.40
2022-09-28T03:13:00.841Z,0.50
2022-09-28T03:16:10.456Z,0.62
2022-09-28T03:19:18.926Z,0.40
2022-09-28T03:22:23.647Z,0.43
2022-09-28T03:25:49.216Z,0.70
2022-09-28T03:28:55.142Z,0.50
2022-09-28T03:32:01.558Z,0.40
2022-09-28T03:35:05.613Z,0.60
2022-09-28T03:38:11.436Z,0.60
2022-09-28T03:41:18.719Z,0.50
2022-09-28T03:44:25.237Z,0.40
2022-09-28T03:47:28.647Z,0.50
2022-09-28T03:50:35.543Z,0.50
2022-09-28T03:56:46.348Z,0.52
2022-09-28T03:59:52.072Z,0.60
2022-09-28T04:03:14.909Z,0.50
2022-09-28T04:09:27.336Z,0.50
2022-09-28T04:12:51.342Z,0.47
2022-09-28T04:15:58.961Z,0.50
2022-09-28T04:19:04.286Z,0.50
2022-09-28T04:22:09.121Z,0.75
2022-09-28T04:25:13.262Z,0.50
2022-09-28T04:28:36.016Z,0.50
2022-09-28T04:31:52.053Z,0.57
2022-09-28T04:34:55.775Z,0.60
2022-09-28T04:38:02.644Z,0.60
2022-09-28T04:41:08.116Z,0.65
2022-09-28T04:44:16.510Z,0.80
2022-09-28T04:47:43.628Z,0.90
2022-09-28T04:50:56.788Z,0.60
2022-09-28T04:54:19.635Z,0.73
2022-09-28T04:57:30.897Z,0.60
2022-09-28T05:00:58.388Z,0.60
2022-09-28T05:04:05.985Z,0.70
2022-09-28T05:07:09.349Z,0.50
2022-09-28T05:10:17.563Z,0.98
2022-09-28T05:13:21.055Z,0.83
2022-09-28T05:16:27.170Z,1.17
2022-09-28T05:19:35.197Z,1.15
2022-09-28T05:22:41.680Z,0.85
2022-09-28T05:25:45.938Z,1.27
2022-09-28T05:28:51.330Z,0.82
2022-09-28T05:31:58.256Z,0.80
2022-09-28T05:35:02.208Z,1.00
2022-09-28T05:38:07.258Z,1.10
2022-09-28T05:41:15.141Z,1.50
2022-09-28T05:44:21.156Z,1.40
2022-09-28T05:47:28.367Z,1.27
2022-09-28T05:50:33.854Z,1.10
2022-09-28T05:53:40.563Z,1.10
2022-09-28T05:57:08.395Z,1.10
2022-09-28T06:00:14.715Z,0.93
2022-09-28T06:06:48.766Z,1.12
2022-09-28T06:09:56.173Z,1.37
2022-09-28T06:13:04.499Z,1.20
2022-09-28T06:16:10.886Z,1.30
2022-09-28T06:19:31.202Z,0.88
2022-09-28T06:22:36.906Z,1.30
2022-09-28T06:25:44.390Z,1.20
2022-09-28T06:28:48.524Z,1.00
2022-09-28T06:31:56.123Z,0.90
2022-09-28T06:35:02.777Z,0.60
2022-09-28T06:38:06.738Z,0.73
2022-09-28T06:41:18.955Z,0.60
2022-09-28T06:44:28.075Z,0.90
2022-09-28T06:47:33.876Z,0.40
2022-09-28T06:50:59.362Z,0.50
2022-09-28T06:54:35.400Z,0.60
2022-09-28T06:58:04.976Z,0.80
2022-09-28T07:04:55.024Z,0.65
2022-09-28T07:08:05.196Z,0.80
2022-09-28T07:12:13.848Z,0.70
2022-09-28T07:15:17.779Z,0.50
2022-09-28T07:18:42.815Z,0.70
2022-09-28T07:22:02.287Z,0.80
2022-09-28T07:25:32.423Z,0.50
2022-09-28T07:28:43.034Z,0.70
2022-09-28T07:32:23.484Z,0.50
2022-09-28T07:35:28.143Z,0.65
2022-09-28T07:38:34.154Z,0.77
2022-09-28T07:41:39.763Z,0.62
2022-09-28T07:44:46.102Z,0.70
2022-09-28T07:47:50.280Z,0.60
2022-09-28T07:50:57.616Z,0.68
2022-09-28T07:54:06.627Z,0.70
2022-09-28T07:57:15.310Z,0.90
2022-09-28T08:00:19.406Z,0.90
2022-09-28T08:03:22.949Z,0.88
2022-09-28T08:06:25.899Z,0.77
2022-09-28T08:09:30.414Z,0.70
2022-09-28T08:12:36.079Z,0.73
2022-09-28T08:15:52.272Z,0.60
2022-09-28T08:18:56.342Z,0.60
2022-09-28T08:22:22.133Z,0.77
2022-09-28T08:25:45.551Z,0.68
2022-09-28T08:28:59.497Z,0.75
2022-09-28T08:34:36.264Z,0.50
2022-09-28T08:37:38.616Z,0.50
2022-09-28T08:42:25.385Z,0.68
2022-09-28T08:50:00.724Z,0.93
2022-09-28T08:53:44.467Z,0.90
2022-09-28T09:06:09.746Z,0.80
2022-09-28T09:16:25.304Z,0.70
2022-09-28T09:19:49.715Z,0.60
2022-09-28T09:23:17.387Z,0.70
2022-09-28T09:26:40.275Z,0.55
2022-09-28T09:30:12.891Z,0.60
2022-09-28T09:33:38.975Z,0.60
2022-09-28T09:36:59.368Z,0.80
2022-09-28T09:40:30.830Z,0.80
2022-09-28T09:43:58.860Z,0.88
2022-09-28T09:47:40.596Z,0.82
2022-09-28T09:51:27.526Z,0.55
2022-09-28T09:55:19.762Z,0.80
2022-09-28T09:58:48.064Z,0.80
2022-09-28T10:01:56.132Z,0.90
2022-09-28T10:05:15.079Z,0.90
2022-09-28T10:08:29.465Z,1.00
2022-09-28T10:11:46.240Z,0.90
2022-09-28T10:15:47.946Z,0.77
2022-09-28T10:19:23.292Z,0.82
2022-09-28T10:23:44.342Z,0.75
2022-09-28T10:27:02.063Z,0.60
2022-09-28T10:30:19.556Z,0.88
2022-09-28T10:33:33.718Z,0.73
2022-09-28T10:37:09.411Z,0.90
2022-09-28T10:40:58.205Z,1.27
2022-09-28T10:44:06.849Z,1.12
2022-09-28T10:47:17.858Z,1.40
2022-09-28T10:50:25.440Z,1.52
2022-09-28T10:53:32.174Z,1.10
2022-09-28T10:56:40.012Z,1.27
2022-09-28T10:59:44.531Z,1.10
2022-09-28T11:02:53.112Z,1.10
2022-09-28T11:06:30.465Z,1.00
2022-09-28T11:09:45.865Z,0.95
2022-09-28T11:12:51.635Z,0.70
2022-09-28T11:16:30.491Z,1.02
2022-09-28T11:20:12.253Z,1.10
2022-09-28T11:23:26.917Z,1.02
2022-09-28T11:27:22.131Z,1.10
2022-09-28T11:30:45.026Z,1.10
2022-09-28T11:34:06.507Z,2.42
2022-09-28T11:37:25.210Z,1.17
2022-09-28T11:41:00.589Z,0.73
2022-09-28T11:44:32.614Z,0.80
2022-09-28T11:47:47.344Z,0.68
2022-09-28T11:51:16.068Z,0.70
2022-09-28T11:55:26.549Z,0.70
2022-09-28T11:58:41.933Z,0.80
2022-09-28T12:01:58.719Z,0.90
2022-09-28T12:05:27.558Z,0.50
2022-09-28T12:08:35.231Z,0.70
2022-09-28T12:11:51.463Z,0.62
2022-09-28T12:15:00.470Z,0.60
2022-09-28T12:18:16.178Z,0.80
2022-09-28T12:21:28.192Z,0.50
2022-09-28T12:24:45.024Z,0.50
2022-09-28T12:28:06.745Z,0.60
2022-09-28T12:31:37.713Z,0.60
2022-09-28T12:35:00.051Z,0.50
2022-09-28T12:38:24.957Z,0.50
2022-09-28T12:42:01.107Z,0.43
2022-09-28T12:45:10.376Z,0.40
2022-09-28T12:48:28.672Z,0.40
2022-09-28T12:51:48.193Z,0.93
2022-09-28T12:55:02.215Z,0.60
2022-09-28T12:58:32.862Z,0.40
2022-09-28T13:02:02.379Z,0.50
2022-09-28T13:05:28.415Z,0.50
2022-09-28T13:08:36.895Z,0.50
2022-09-28T13:12:11.215Z,0.35
2022-09-28T13:15:23.639Z,0.37
2022-09-28T13:18:46.621Z,0.28
2022-09-28T13:21:59.150Z,0.35
2022-09-28T13:25:32.159Z,0.40
2022-09-28T13:28:54.693Z,0.55
2022-09-28T13:32:03.460Z,0.50
2022-09-28T13:35:06.872Z,0.50
2022-09-28T13:38:16.619Z,0.55
2022-09-28T13:41:34.272Z,0.70
2022-09-28T13:44:54.701Z,0.50
2022-09-28T13:47:58.026Z,0.50
2022-09-28T13:51:14.851Z,0.50
2022-09-28T13:54:32.525Z,0.30
2022-09-28T13:57:35.357Z,0.73
2022-09-28T14:01:09.218Z,0.37
2022-09-28T14:04:19.753Z,0.70
2022-09-28T14:10:46.423Z,0.40
2022-09-28T14:14:08.147Z,0.37
2022-09-28T14:17:29.803Z,0.30
2022-09-28T14:20:35.425Z,0.40
2022-09-28T14:24:05.491Z,0.45
2022-09-28T14:27:16.975Z,0.40
2022-09-28T14:30:29.643Z,0.37
2022-09-28T14:33:35.094Z,0.70
2022-09-28T14:37:06.543Z,0.40
2022-09-28T14:40:36.573Z,0.68
2022-09-28T14:43:48.214Z,0.40
2022-09-28T14:47:33.919Z,0.40
2022-09-28T14:50:39.715Z,0.50
2022-09-28T14:53:42.708Z,0.50
2022-09-28T14:56:49.689Z,0.40
2022-09-28T14:59:55.428Z,0.50
2022-09-28T15:03:21.763Z,0.40
2022-09-28T15:09:38.077Z,0.40
2022-09-28T15:12:44.800Z,0.57
2022-09-28T15:15:51.789Z,0.50
2022-09-28T15:22:18.797Z,0.50
2022-09-28T15:25:22.635Z,0.45
2022-09-28T15:28:25.881Z,0.50
2022-09-28T15:31:34.106Z,0.50
2022-09-28T15:34:56.963Z,0.60
2022-09-28T15:38:00.005Z,0.73
2022-09-28T15:41:10.296Z,0.57
2022-09-28T15:44:30.830Z,1.50
2022-09-28T15:47:35.380Z,1.50
2022-09-28T15:51:23.008Z,1.27
2022-09-28T15:54:42.687Z,0.80
2022-09-28T15:57:49.432Z,0.88
2022-09-28T16:01:31.139Z,0.75
2022-09-28T16:04:48.254Z,1.20
2022-09-28T16:07:56.520Z,0.80
2022-09-28T16:11:11.485Z,1.00
2022-09-28T16:14:21.291Z,1.55
2022-09-28T16:17:35.772Z,0.85
2022-09-28T16:20:43.085Z,0.80
2022-09-28T16:23:56.180Z,1.10
2022-09-28T16:27:07.730Z,1.00
2022-09-28T16:30:32.989Z,1.12
2022-09-28T16:34:09.549Z,1.25
2022-09-28T16:37:44.348Z,3.42
2022-09-28T16:40:54.061Z,2.62
2022-09-28T16:44:02.397Z,2.90
2022-09-28T16:47:07.681Z,2.12
2022-09-28T16:50:19.671Z,8.80
2022-09-28T16:53:44.559Z,11.48
2022-09-28T16:56:47.609Z,3.58
2022-09-28T16:59:56.283Z,1.45
2022-09-28T17:03:05.335Z,1.65
2022-09-28T17:06:12.122Z,2.45
2022-09-28T17:09:16.165Z,3.25
2022-09-28T17:12:43.366Z,4.07
2022-09-28T17:15:50.245Z,4.07
2022-09-28T17:18:53.028Z,2.92
2022-09-28T17:21:55.844Z,3.45
2022-09-28T17:25:04.794Z,2.08
2022-09-28T17:28:18.601Z,1.67
2022-09-28T17:31:26.942Z,1.55
2022-09-28T17:34:30.542Z,1.83
2022-09-28T17:37:40.810Z,1.95
2022-09-28T17:40:50.670Z,2.67
2022-09-28T17:43:59.881Z,2.17
2022-09-28T17:47:46.122Z,3.72
2022-09-28T17:50:48.657Z,3.80
2022-09-28T17:53:54.386Z,3.25
2022-09-28T17:56:58.586Z,2.70
2022-09-28T18:00:02.094Z,2.20
2022-09-28T18:03:29.758Z,1.80
2022-09-28T18:06:38.092Z,1.90
2022-09-28T18:09:41.808Z,1.67
2022-09-28T18:12:45.633Z,1.87
2022-09-28T18:16:10.591Z,2.28
2022-09-28T18:19:13.877Z,1.60
2022-09-28T18:22:41.276Z,1.67
2022-09-28T18:25:47.415Z,1.75
2022-09-28T18:28:56.179Z,2.75
2022-09-28T18:32:01.762Z,3.95
2022-09-28T18:35:07.315Z,3.05
2022-09-28T18:38:15.569Z,3.08
2022-09-28T18:41:18.799Z,3.80
2022-09-28T18:44:23.874Z,3.80
2022-09-28T18:47:30.480Z,3.90
2022-09-28T18:50:34.393Z,5.07
2022-09-28T18:53:38.034Z,4.10
2022-09-28T18:56:41.175Z,3.58
2022-09-28T18:59:44.663Z,3.25
2022-09-28T19:02:47.967Z,3.28
2022-09-28T19:05:53.851Z,3.95
2022-09-28T19:09:01.580Z,3.65
2022-09-28T19:12:06.967Z,3.87
2022-09-28T19:15:12.910Z,4.18
2022-09-28T19:18:16.429Z,3.85
2022-09-28T19:21:24.431Z,3.45
2022-09-28T19:24:55.800Z,3.45
2022-09-28T19:28:00.126Z,3.60
2022-09-28T19:31:09.489Z,3.55
2022-09-28T19:34:30.455Z,3.62
2022-09-28T19:37:54.122Z,2.58
2022-09-28T19:40:58.785Z,2.80
2022-09-28T19:44:06.469Z,2.50
2022-09-28T19:47:11.976Z,2.47
2022-09-28T19:50:14.466Z,2.60
2022-09-28T19:53:21.858Z,2.60
2022-09-28T19:56:48.295Z,2.10
2022-09-28T19:59:53.297Z,1.62
2022-09-28T20:02:58.283Z,1.58
2022-09-28T20:06:02.180Z,1.65
2022-09-28T20:09:10.350Z,1.75
2022-09-28T20:12:14.116Z,1.62
2022-09-28T20:15:35.880Z,1.50
2022-09-28T20:21:44.929Z,2.12
2022-09-28T20:24:54.364Z,1.90
2022-09-28T20:28:17.184Z,1.90
2022-09-28T20:31:26.273Z,1.90
2022-09-28T20:34:30.423Z,1.70
2022-09-28T20:37:37.305Z,1.75
2022-09-28T20:40:42.379Z,1.83
2022-09-28T20:43:46.814Z,1.70
2022-09-28T20:46:52.145Z,2.08
2022-09-28T20:49:56.872Z,1.60
2022-09-28T20:53:04.299Z,1.70
2022-09-28T20:56:12.871Z,1.43
2022-09-28T20:59:20.324Z,1.80
2022-09-28T21:02:24.025Z,1.75
2022-09-28T21:05:47.512Z,1.15
2022-09-28T21:09:14.782Z,1.50
2022-09-28T21:12:38.893Z,1.10
2022-09-28T21:15:43.003Z,1.30
2022-09-28T21:19:05.426Z,1.60
2022-09-28T21:22:08.318Z,1.40
2022-09-28T21:25:11.689Z,1.25
2022-09-28T21:28:36.370Z,1.60
2022-09-28T21:31:47.467Z,1.60
2022-09-28T21:34:51.063Z,1.25
2022-09-28T21:37:56.383Z,1.50
2022-09-28T21:41:05.089Z,1.33
2022-09-28T21:44:08.627Z,1.35
2022-09-28T21:47:13.346Z,1.70
2022-09-28T21:50:15.885Z,1.42
2022-09-28T21:53:18.975Z,1.30
2022-09-28T21:56:23.806Z,1.50
2022-09-28T21:59:26.593Z,1.85
2022-09-28T22:02:32.056Z,1.73
2022-09-28T22:05:37.639Z,1.52
2022-09-28T22:08:42.904Z,1.70
2022-09-28T22:11:49.042Z,1.55
2022-09-28T22:14:51.792Z,1.62
2022-09-28T22:17:58.024Z,1.73
2022-09-28T22:21:10.844Z,1.80
2022-09-28T22:24:24.648Z,1.50
2022-09-28T22:30:38.034Z,1.65
2022-09-28T22:33:43.706Z,1.30
2022-09-28T22:37:06.348Z,1.80
2022-09-28T22:40:12.678Z,1.80
2022-09-28T22:43:16.147Z,2.00
2022-09-28T22:46:24.553Z,2.17
2022-09-28T22:49:45.542Z,2.45
2022-09-28T22:52:48.708Z,2.25
2022-09-28T22:55:51.998Z,2.15
2022-09-28T22:58:54.514Z,2.20
2022-09-28T23:01:59.487Z,2.08
2022-09-28T23:05:03.406Z,2.40
2022-09-28T23:08:06.562Z,2.03
2022-09-28T23:11:10.655Z,2.47
2022-09-28T23:14:16.917Z,1.80
2022-09-28T23:17:41.703Z,1.80
2022-09-28T23:20:44.980Z,2.00
2022-09-28T23:24:03.992Z,1.98
2022-09-28T23:27:29.583Z,2.08
2022-09-28T23:30:34.691Z,1.87
2022-09-28T23:33:42.196Z,1.98
2022-09-28T23:37:07.597Z,2.00
2022-09-28T23:40:11.204Z,1.90
2022-09-28T23:43:14.454Z,1.90
2022-09-28T23:46:20.906Z,1.73
2022-09-28T23:49:43.726Z,2.00
2022-09-28T23:52:50.974Z,1.70
2022-09-28T23:58:57.659Z,1.77
